Time;durP1;ratioP1;P1;durP2;ratioP2;P2;SDS_P1;SDS_P2;PMS_P1;PMS_P2;Temp;Humidity;BMP_temperature;BMP_pressure;BME280_temperature;BME280_humidity;BME280_pressure;Samples;Min_cycle;Max_cycle;Signal;HPM_P1;HPM_P2
2022/06/16 00:00:19;;;;;;;24.67;13.38;;;;;;;21.48;73.89;100928.39;1689391;83;21080;-71
2022/06/16 00:02:50;;;;;;;25.17;13.55;;;;;;;21.44;74.08;100931.40;1652218;86;21064;-71
2022/06/16 00:05:23;;;;;;;25.92;13.53;;;;;;;21.41;74.36;100926.73;1683377;84;21087;-71
2022/06/16 00:07:51;;;;;;;22.65;13.08;;;;;;;21.41;75.73;100922.80;1645450;86;21016;-69
2022/06/16 00:10:21;;;;;;;22.48;12.15;;;;;;;21.50;75.87;100923.03;1684119;84;21063;-68
2022/06/16 00:12:48;;;;;;;25.48;13.43;;;;;;;21.30;76.47;100928.09;1684279;84;21072;-68
2022/06/16 00:15:21;;;;;;;22.15;12.40;;;;;;;21.18;77.10;100927.31;1649144;86;21099;-68
2022/06/16 00:17:48;;;;;;;22.90;12.68;;;;;;;21.11;77.80;100929.27;1684163;84;21491;-68
2022/06/16 00:20:16;;;;;;;23.02;13.28;;;;;;;21.13;78.47;100924.25;1649033;86;21527;-68
2022/06/16 00:22:44;;;;;;;31.73;12.90;;;;;;;21.15;78.35;100922.34;1680427;84;21051;-68
2022/06/16 00:25:12;;;;;;;29.57;12.95;;;;;;;20.99;78.99;100927.17;1689832;84;21050;-68
2022/06/16 00:27:41;;;;;;;28.07;12.47;;;;;;;21.03;79.02;100923.35;1647279;87;21100;-71
2022/06/16 00:30:11;;;;;;;24.82;12.10;;;;;;;20.88;79.50;100921.97;1681857;84;21126;-71
2022/06/16 00:32:41;;;;;;;23.65;12.20;;;;;;;20.86;79.74;100920.77;1648246;86;21004;-71
2022/06/16 00:35:12;;;;;;;22.85;12.28;;;;;;;20.90;79.69;100926.11;1684351;84;21532;-71
2022/06/16 00:37:40;;;;;;;21.33;12.07;;;;;;;20.72;80.51;100931.52;1679585;85;21551;-71
2022/06/16 00:40:10;;;;;;;23.67;11.53;;;;;;;20.80;80.40;100933.91;1690249;84;21060;-71
2022/06/16 00:42:38;;;;;;;21.05;11.50;;;;;;;20.68;80.95;100934.89;1689916;84;21016;-71
2022/06/16 00:45:49;;;;;;;20.88;11.25;;;;;;;20.63;81.51;100933.09;1650790;86;21050;-71
2022/06/16 00:48:52;;;;;;;23.40;11.95;;;;;;;20.69;81.67;100932.61;1681256;85;21539;-69
2022/06/16 00:51:37;;;;;;;23.15;11.80;;;;;;;20.56;83.12;100935.80;1647828;86;21084;-69
2022/06/16 00:54:24;;;;;;;23.47;12.43;;;;;;;20.52;84.54;100938.31;1692097;83;21075;-71
2022/06/16 00:56:56;;;;;;;23.22;11.97;;;;;;;20.46;84.62;100934.42;1692789;84;21039;-69
2022/06/16 00:59:26;;;;;;;24.32;11.80;;;;;;;20.36;84.94;100936.09;1649633;86;21037;-69
2022/06/16 01:01:54;;;;;;;21.25;12.23;;;;;;;20.41;85.73;100932.14;1681240;84;21161;-68
2022/06/16 01:07:11;;;;;;;24.05;11.35;;;;;;;20.37;85.21;100941.19;1650395;86;21052;-69
2022/06/16 01:09:42;;;;;;;19.40;11.25;;;;;;;20.21;85.99;100952.03;1682645;84;21096;-68
2022/06/16 01:15:32;;;;;;;19.57;10.88;;;;;;;20.31;85.60;100952.61;1656924;86;21059;-69
2022/06/16 01:18:33;;;;;;;12.88;9.30;;;;;;;20.23;86.07;100954.98;1627569;87;21071;-71
2022/06/16 01:21:24;;;;;;;14.87;9.50;;;;;;;20.15;87.34;100955.58;1682495;84;21518;-69
2022/06/16 01:24:10;;;;;;;16.65;8.65;;;;;;;20.16;87.76;100950.23;1682627;84;21549;-69
2022/06/16 01:27:04;;;;;;;18.12;8.95;;;;;;;20.19;87.59;100955.24;1679936;85;21095;-69
2022/06/16 01:29:47;;;;;;;18.62;8.70;;;;;;;20.21;87.60;100958.57;1655496;85;21059;-69
2022/06/16 01:32:28;;;;;;;19.85;10.10;;;;;;;20.13;87.98;100967.93;1678564;84;21536;-69
2022/06/16 01:35:29;;;;;;;17.70;9.55;;;;;;;20.11;88.32;100965.42;1679180;84;21576;-68
2022/06/16 01:38:07;;;;;;;15.43;9.03;;;;;;;20.15;88.43;100962.97;1669839;84;21051;-68
2022/06/16 01:41:08;;;;;;;14.50;8.98;;;;;;;20.14;88.83;100967.82;1684268;84;21051;-69
2022/06/16 01:43:47;;;;;;;14.33;8.90;;;;;;;20.07;89.42;100967.92;1673816;84;21037;-68
2022/06/16 01:46:32;;;;;;;15.30;9.43;;;;;;;19.92;90.13;100970.42;1682160;85;21079;-68
2022/06/16 01:49:18;;;;;;;15.35;9.78;;;;;;;20.06;90.13;100976.73;1680779;85;21024;-68
2022/06/16 01:52:11;;;;;;;21.15;9.75;;;;;;;20.07;89.43;100979.69;1681407;85;21060;-68
2022/06/16 01:54:46;;;;;;;17.20;9.60;;;;;;;20.08;89.64;100983.15;1660720;85;21047;-68
2022/06/16 01:57:29;;;;;;;16.02;9.30;;;;;;;19.99;89.55;100976.37;1684467;84;21091;-69
2022/06/16 02:00:08;;;;;;;16.00;9.33;;;;;;;20.04;89.87;100980.42;1660177;85;21012;-70
2022/06/16 02:02:42;;;;;;;17.73;9.10;;;;;;;20.00;89.87;100982.42;1688126;84;21063;-69
2022/06/16 02:05:29;;;;;;;18.07;9.53;;;;;;;20.01;90.15;100984.08;1691822;84;21090;-68
2022/06/16 02:08:05;;;;;;;16.00;9.58;;;;;;;20.06;89.74;100982.44;1692992;83;21050;-69
2022/06/16 02:10:41;;;;;;;18.00;10.35;;;;;;;19.97;89.82;100982.64;1689363;83;21527;-69
2022/06/16 02:13:13;;;;;;;19.98;10.95;;;;;;;20.03;89.89;100982.66;1643717;87;21548;-68
2022/06/16 02:16:19;;;;;;;17.80;10.20;;;;;;;20.05;89.90;100984.20;1684712;84;21047;-68
2022/06/16 02:18:50;;;;;;;20.45;10.32;;;;;;;20.07;89.51;100989.31;1681030;84;21099;-68
2022/06/16 02:21:40;;;;;;;15.83;9.93;;;;;;;20.13;89.33;100991.00;1688762;84;21078;-68
2022/06/16 02:24:13;;;;;;;18.45;10.20;;;;;;;20.26;89.07;100990.05;1688888;83;21130;-68
2022/06/16 02:26:42;;;;;;;19.25;10.58;;;;;;;20.30;89.40;100996.23;1654610;86;21119;-68
2022/06/16 02:29:37;;;;;;;21.27;10.58;;;;;;;20.34;89.71;100996.83;1678693;84;21068;-69
2022/06/16 02:32:38;;;;;;;21.85;10.45;;;;;;;20.51;89.00;100991.58;1679631;85;21099;-68
2022/06/16 02:35:18;;;;;;;20.88;10.72;;;;;;;20.58;88.79;100990.16;1648499;86;21076;-69
2022/06/16 02:38:00;;;;;;;19.45;9.80;;;;;;;20.53;88.45;100998.83;1687477;84;21043;-68
2022/06/16 02:40:48;;;;;;;15.63;10.08;;;;;;;20.63;87.93;101002.42;1692067;84;21059;-69
2022/06/16 02:43:38;;;;;;;22.58;10.23;;;;;;;20.85;86.84;101009.41;1690353;83;21535;-68
2022/06/16 02:46:24;;;;;;;20.10;9.98;;;;;;;20.90;84.95;101006.41;1693917;84;21074;-69
2022/06/16 02:49:12;;;;;;;20.57;9.98;;;;;;;20.84;85.00;101005.11;1689185;84;21543;-69
2022/06/16 02:52:17;;;;;;;15.28;9.65;;;;;;;20.79;85.34;101008.59;1691468;84;21055;-68
2022/06/16 02:55:05;;;;;;;18.42;9.88;;;;;;;20.87;85.88;101007.50;1686848;84;21508;-69
2022/06/16 02:57:51;;;;;;;18.87;9.75;;;;;;;21.02;85.90;101004.13;1690234;84;21052;-69
2022/06/16 03:00:28;;;;;;;15.23;9.80;;;;;;;21.19;84.61;101006.70;1690340;84;21071;-68
2022/06/16 03:02:56;;;;;;;17.07;9.75;;;;;;;21.47;83.06;101005.77;1693530;83;21070;-69
2022/06/16 03:05:24;;;;;;;15.30;9.35;;;;;;;21.59;82.34;101012.16;1687183;84;21067;-68
2022/06/16 03:07:52;;;;;;;20.52;9.40;;;;;;;21.70;81.88;101013.06;1686168;83;21020;-68
2022/06/16 03:13:09;;;;;;;14.03;8.60;;;;;;;21.62;80.36;101009.77;1690138;83;21103;-69
2022/06/16 03:15:38;;;;;;;17.52;9.55;;;;;;;21.88;79.40;101006.73;1689406;83;21031;-69
2022/06/16 03:18:07;;;;;;;14.75;8.40;;;;;;;21.78;79.48;101010.14;1689173;83;21099;-69
2022/06/16 03:20:35;;;;;;;18.48;8.73;;;;;;;21.74;80.16;101007.91;1689361;83;21051;-69
2022/06/16 03:23:03;;;;;;;20.32;8.95;;;;;;;21.79;80.79;101013.59;1690453;84;21059;-68
2022/06/16 03:25:33;;;;;;;16.55;8.83;;;;;;;21.81;80.94;101010.36;1691925;84;21055;-68
2022/06/16 03:28:00;;;;;;;18.87;8.83;;;;;;;21.97;80.88;101011.22;1695836;83;21027;-69
2022/06/16 03:30:31;;;;;;;24.07;9.25;;;;;;;22.24;79.27;101012.48;1689883;84;21153;-68
2022/06/16 03:32:58;;;;;;;17.85;9.30;;;;;;;22.40;78.83;101016.30;1687246;84;21095;-69
2022/06/16 03:35:26;;;;;;;15.25;8.65;;;;;;;22.55;79.05;101010.69;1689442;83;21027;-68
2022/06/16 03:37:54;;;;;;;17.52;8.65;;;;;;;22.53;78.39;101016.55;1682960;85;21080;-71
2022/06/16 03:40:23;;;;;;;17.55;8.23;;;;;;;22.52;78.19;101012.25;1685313;83;21095;-70
2022/06/16 03:42:52;;;;;;;17.92;8.28;;;;;;;22.75;78.15;101009.78;1686120;83;21027;-70
2022/06/16 03:45:23;;;;;;;14.43;8.05;;;;;;;22.83;78.57;101010.88;1690049;84;21063;-69
2022/06/16 03:47:53;;;;;;;12.53;7.42;;;;;;;23.06;77.57;101018.09;1694447;84;21098;-69
2022/06/16 03:50:20;;;;;;;14.00;7.42;;;;;;;23.35;75.59;101020.72;1687780;84;21736;-68
2022/06/16 03:52:49;;;;;;;14.95;7.10;;;;;;;23.43;75.18;101025.29;1687726;83;21043;-68
2022/06/16 03:55:17;;;;;;;17.17;7.70;;;;;;;23.72;73.54;101014.27;1687453;84;21092;-70
2022/06/16 03:57:46;;;;;;;12.25;6.75;;;;;;;23.64;74.43;101019.86;1682579;83;21000;-70
2022/06/16 04:00:15;;;;;;;12.80;6.80;;;;;;;24.00;72.80;101023.07;1691144;84;21565;-69
2022/06/16 04:02:46;;;;;;;15.53;7.22;;;;;;;24.16;72.51;101025.59;1694773;85;21102;-70
2022/06/16 04:05:17;;;;;;;13.62;6.33;;;;;;;24.25;71.82;101018.64;1689830;83;21629;-70
2022/06/16 04:07:47;;;;;;;10.60;5.62;;;;;;;24.19;70.90;101024.02;1692386;84;21079;-70
2022/06/16 04:10:16;;;;;;;14.63;5.28;;;;;;;24.29;69.49;101022.17;1689913;84;21055;-69
2022/06/16 04:12:45;;;;;;;15.38;6.08;;;;;;;24.43;68.97;101028.73;1686671;84;21035;-70
2022/06/16 04:15:15;;;;;;;7.70;4.85;;;;;;;24.52;68.24;101027.91;1689846;84;21095;-69
2022/06/16 04:17:43;;;;;;;9.23;5.03;;;;;;;24.63;66.75;101022.11;1683891;84;21043;-69
2022/06/16 04:20:17;;;;;;;7.22;4.03;;;;;;;24.83;65.15;101028.91;1686615;83;21508;-69
2022/06/16 04:22:51;;;;;;;5.33;3.63;;;;;;;24.94;62.82;101031.35;1690450;83;21560;-70
2022/06/16 04:25:30;;;;;;;5.03;3.90;;;;;;;25.16;61.88;101025.30;1691720;83;21012;-69
2022/06/16 04:27:53;;;;;;;6.70;4.15;;;;;;;25.33;62.41;101023.19;1687084;84;21717;-69
2022/06/16 04:30:23;;;;;;;11.68;4.60;;;;;;;25.26;60.59;101033.98;1695158;83;21099;-69
2022/06/16 04:32:52;;;;;;;11.28;3.90;;;;;;;25.27;59.63;101030.37;1692574;83;21083;-69
2022/06/16 04:35:21;;;;;;;6.90;4.00;;;;;;;25.55;59.52;101017.94;1692140;83;21012;-69
2022/06/16 04:37:51;;;;;;;8.10;3.40;;;;;;;25.53;59.65;101019.08;1684604;83;21051;-69
2022/06/16 04:40:19;;;;;;;5.97;3.42;;;;;;;25.69;59.48;101025.79;1694289;83;21020;-69
2022/06/16 04:42:46;;;;;;;8.93;3.30;;;;;;;25.81;59.13;101021.56;1690825;84;21083;-69
2022/06/16 04:45:14;;;;;;;5.35;3.00;;;;;;;26.07;58.38;101025.55;1692911;84;21067;-69
2022/06/16 04:47:42;;;;;;;4.90;3.17;;;;;;;26.21;56.72;101028.10;1690185;83;21042;-69
2022/06/16 04:50:13;;;;;;;7.00;2.90;;;;;;;26.31;57.62;101031.45;1690414;83;21090;-69
2022/06/16 04:52:40;;;;;;;5.97;3.25;;;;;;;26.30;56.77;101027.17;1694301;84;21059;-69
2022/06/16 04:55:09;;;;;;;7.37;3.10;;;;;;;26.53;55.49;101027.42;1664872;84;21126;-69
2022/06/16 04:57:46;;;;;;;5.50;3.62;;;;;;;26.70;55.88;101030.97;1674026;84;21559;-69
2022/06/16 05:00:19;;;;;;;6.42;2.87;;;;;;;26.66;55.47;101027.81;1686641;83;21559;-69
2022/06/16 05:02:48;;;;;;;6.55;3.10;;;;;;;26.68;55.12;101026.34;1680069;84;21103;-70
2022/06/16 05:05:24;;;;;;;7.87;3.15;;;;;;;26.80;54.53;101019.77;1688589;84;21602;-70
2022/06/16 05:07:58;;;;;;;6.53;3.30;;;;;;;26.68;54.55;101030.30;1690118;84;21026;-69
2022/06/16 05:10:40;;;;;;;5.90;2.98;;;;;;;26.78;55.00;101027.02;1689687;84;21074;-69
2022/06/16 05:13:09;;;;;;;6.35;3.70;;;;;;;26.91;54.45;101025.26;1682910;83;21091;-70
2022/06/16 05:15:40;;;;;;;5.95;3.00;;;;;;;26.89;53.62;101025.42;1684944;83;21048;-69
2022/06/16 05:18:15;;;;;;;6.80;3.27;;;;;;;26.90;54.35;101032.84;1681668;84;21031;-70
2022/06/16 05:20:44;;;;;;;7.85;3.10;;;;;;;26.77;54.26;101028.84;1689672;83;21043;-70
2022/06/16 05:23:22;;;;;;;8.53;3.20;;;;;;;26.76;54.55;101029.85;1687392;83;21023;-70
2022/06/16 05:25:54;;;;;;;3.90;2.45;;;;;;;26.89;53.21;101033.34;1683362;83;21139;-70
2022/06/16 05:28:26;;;;;;;6.30;2.95;;;;;;;27.06;54.11;101033.37;1669545;83;21059;-69
2022/06/16 05:31:10;;;;;;;6.75;2.85;;;;;;;27.17;53.46;101037.03;1641778;86;21180;-70
2022/06/16 05:33:39;;;;;;;7.92;3.08;;;;;;;27.20;53.29;101038.02;1670888;84;21047;-70
2022/06/16 05:36:13;;;;;;;5.35;2.87;;;;;;;27.26;53.73;101040.03;1680677;83;21059;-69
2022/06/16 05:38:43;;;;;;;8.20;2.52;;;;;;;27.41;53.82;101038.88;1690927;83;21547;-69
2022/06/16 05:41:29;;;;;;;4.05;2.10;;;;;;;27.38;51.40;101042.67;1688017;83;21084;-70
2022/06/16 05:43:59;;;;;;;4.65;2.25;;;;;;;27.42;51.57;101047.65;1659460;84;21578;-69
2022/06/16 05:46:31;;;;;;;4.80;2.30;;;;;;;27.33;49.73;101049.44;1687624;83;21089;-70
2022/06/16 05:49:00;;;;;;;4.15;2.10;;;;;;;27.57;48.86;101057.41;1690572;83;21559;-69
2022/06/16 05:51:28;;;;;;;3.40;2.17;;;;;;;27.53;49.51;101056.56;1691446;84;21574;-69
2022/06/16 05:54:03;;;;;;;4.28;2.42;;;;;;;27.68;48.46;101054.09;1694083;83;21097;-69
2022/06/16 05:56:36;;;;;;;4.95;2.40;;;;;;;28.25;49.45;101051.86;1691146;84;21102;-69
2022/06/16 05:59:05;;;;;;;5.08;2.40;;;;;;;28.46;48.89;101056.07;1693960;84;21184;-70
2022/06/16 06:01:35;;;;;;;6.22;2.40;;;;;;;28.55;47.74;101057.73;1696372;84;21039;-69
2022/06/16 06:04:05;;;;;;;4.42;2.37;;;;;;;28.65;49.76;101050.06;1692538;84;21024;-69
2022/06/16 06:06:33;;;;;;;6.05;2.27;;;;;;;28.46;49.16;101053.42;1688475;84;21074;-70
2022/06/16 06:17:24;;;;;;;3.87;2.20;;;;;;;28.43;48.24;101056.91;1690053;84;21075;-70
2022/06/16 06:19:53;;;;;;;3.77;2.20;;;;;;;28.37;48.10;101057.12;1695127;83;21092;-70
2022/06/16 06:22:27;;;;;;;2.75;2.10;;;;;;;28.63;46.70;101057.36;1694089;84;21090;-69
2022/06/16 06:24:58;;;;;;;3.65;2.20;;;;;;;28.58;44.52;101056.55;1686679;84;21024;-69
2022/06/16 06:27:40;;;;;;;2.30;2.08;;;;;;;28.74;45.70;101059.63;1692428;83;21082;-69
2022/06/16 06:30:16;;;;;;;4.83;2.30;;;;;;;28.84;47.13;101066.05;1688657;84;21016;-70
2022/06/16 06:32:44;;;;;;;2.52;2.00;;;;;;;29.00;45.70;101069.92;1687351;84;21008;-69
2022/06/16 06:35:15;;;;;;;4.83;2.00;;;;;;;28.91;44.08;101070.95;1687744;84;21028;-69
2022/06/16 06:37:44;;;;;;;8.55;2.30;;;;;;;28.91;44.72;101074.93;1689847;83;21075;-69
2022/06/16 06:40:22;;;;;;;4.08;2.40;;;;;;;29.07;44.43;101066.88;1692074;83;21106;-69
2022/06/16 06:42:49;;;;;;;3.60;2.00;;;;;;;28.94;44.43;101075.92;1690497;84;21075;-70
2022/06/16 06:45:19;;;;;;;3.40;2.00;;;;;;;29.22;43.98;101074.95;1695094;83;21154;-69
2022/06/16 06:47:48;;;;;;;2.08;1.90;;;;;;;28.93;44.12;101072.94;1689864;84;21047;-69
2022/06/16 06:50:20;;;;;;;2.83;1.92;;;;;;;29.40;43.82;101073.33;1665816;85;21056;-69
2022/06/16 06:52:48;;;;;;;3.83;1.95;;;;;;;29.67;43.64;101068.47;1695722;84;21067;-69
2022/06/16 06:55:15;;;;;;;3.52;1.77;;;;;;;29.32;42.56;101074.22;1689195;84;21048;-70
2022/06/16 06:57:43;;;;;;;3.42;2.00;;;;;;;29.30;41.28;101074.89;1667867;84;21556;-70
2022/06/16 07:00:15;;;;;;;2.80;2.05;;;;;;;29.72;40.65;101065.60;1690514;84;21054;-70
2022/06/16 07:02:42;;;;;;;3.75;2.08;;;;;;;29.66;41.48;101066.80;1690391;84;21056;-69
2022/06/16 07:05:10;;;;;;;3.27;1.90;;;;;;;29.67;41.76;101061.32;1691445;83;21467;-70
2022/06/16 07:07:38;;;;;;;3.55;2.00;;;;;;;29.52;41.09;101067.08;1688321;84;21499;-69
2022/06/16 07:10:09;;;;;;;4.78;1.82;;;;;;;29.37;42.09;101063.06;1689269;84;21698;-70
2022/06/16 07:12:38;;;;;;;6.28;2.02;;;;;;;29.26;42.23;101068.30;1685654;84;21055;-70
2022/06/16 07:15:07;;;;;;;8.88;2.40;;;;;;;29.26;41.64;101064.31;1693332;84;21092;-70
2022/06/16 07:17:34;;;;;;;4.25;2.00;;;;;;;29.66;40.91;101066.29;1692792;83;21008;-70
2022/06/16 07:20:01;;;;;;;4.35;2.02;;;;;;;29.95;42.09;101063.42;1685901;83;21091;-70
2022/06/16 07:22:30;;;;;;;4.12;2.20;;;;;;;29.83;40.64;101067.02;1693180;84;21044;-69
2022/06/16 07:24:58;;;;;;;3.25;1.75;;;;;;;30.04;41.78;101060.17;1690619;84;21088;-70
2022/06/16 07:27:25;;;;;;;2.47;2.00;;;;;;;29.80;40.08;101062.56;1690423;84;21087;-70
2022/06/16 07:29:54;;;;;;;2.37;1.85;;;;;;;30.23;40.25;101060.96;1691105;84;21074;-70
2022/06/16 07:32:21;;;;;;;2.45;1.90;;;;;;;30.08;39.81;101066.25;1686651;84;21033;-69
2022/06/16 07:34:49;;;;;;;3.45;1.80;;;;;;;30.10;38.81;101060.77;1684753;83;21524;-69
2022/06/16 07:37:18;;;;;;;2.85;1.70;;;;;;;30.50;38.83;101060.82;1689280;83;21095;-69
2022/06/16 07:39:45;;;;;;;2.85;1.70;;;;;;;30.29;38.85;101062.03;1689472;83;21700;-71
2022/06/16 07:42:12;;;;;;;3.80;2.12;;;;;;;30.19;39.99;101060.98;1691129;83;21067;-70
2022/06/16 07:44:40;;;;;;;2.95;2.00;;;;;;;30.10;40.16;101060.77;1688275;83;21066;-69
2022/06/16 07:47:07;;;;;;;3.70;1.85;;;;;;;30.74;39.59;101064.99;1692237;83;21102;-70
2022/06/16 07:49:34;;;;;;;2.60;1.75;;;;;;;30.08;40.00;101067.58;1689623;84;21016;-70
2022/06/16 07:52:02;;;;;;;3.40;2.05;;;;;;;30.52;39.88;101062.79;1691876;84;21566;-70
2022/06/16 07:54:31;;;;;;;3.25;1.90;;;;;;;30.79;38.47;101057.78;1687498;84;21107;-69
2022/06/16 07:56:58;;;;;;;3.65;1.87;;;;;;;30.57;39.02;101060.89;1690714;83;21048;-70
2022/06/16 07:59:26;;;;;;;3.35;1.80;;;;;;;30.82;40.14;101059.23;1692467;84;21044;-70
2022/06/16 08:01:54;;;;;;;4.12;1.80;;;;;;;31.46;38.14;101061.16;1691122;84;21102;-69
2022/06/16 08:04:23;;;;;;;3.30;2.02;;;;;;;31.46;38.14;101061.16;1690818;84;21106;-70
2022/06/16 08:06:51;;;;;;;4.12;1.98;;;;;;;31.34;38.38;101068.28;1688864;83;21154;-69
2022/06/16 08:09:20;;;;;;;4.10;2.12;;;;;;;31.39;38.99;101077.52;1691990;83;21055;-70
2022/06/16 08:12:04;;;;;;;3.00;1.85;;;;;;;31.30;38.72;101071.52;1689762;84;21067;-69
2022/06/16 08:14:32;;;;;;;2.08;1.72;;;;;;;31.85;39.14;101062.46;1685454;84;21101;-71
2022/06/16 08:17:01;;;;;;;4.12;1.70;;;;;;;31.41;37.76;101072.34;1693587;84;21051;-71
2022/06/16 08:19:29;;;;;;;2.45;1.75;;;;;;;31.10;36.76;101072.16;1684159;83;21060;-71
2022/06/16 08:21:57;;;;;;;3.47;1.60;;;;;;;31.52;38.23;101063.05;1687477;83;21118;-71
2022/06/16 08:24:25;;;;;;;3.02;1.70;;;;;;;31.35;36.89;101069.94;1693612;84;21118;-71
2022/06/16 08:26:52;;;;;;;4.85;1.87;;;;;;;32.05;36.72;101064.77;1686679;84;21059;-70
2022/06/16 08:29:19;;;;;;;5.72;1.90;;;;;;;32.39;36.96;101061.78;1696985;84;21047;-71
2022/06/16 08:31:48;;;;;;;3.40;1.77;;;;;;;32.19;36.94;101060.86;1690963;84;21114;-71
2022/06/16 08:34:15;;;;;;;3.50;1.57;;;;;;;31.85;35.97;101073.92;1690344;84;21162;-71
2022/06/16 08:36:44;;;;;;;2.50;1.90;;;;;;;31.53;36.01;101064.19;1685830;84;21565;-71
2022/06/16 08:39:11;;;;;;;2.62;1.67;;;;;;;32.37;35.44;101058.48;1685123;84;21102;-71
2022/06/16 08:42:15;;;;;;;4.60;1.90;;;;;;;32.72;35.73;101063.77;1692899;83;21567;-71
2022/06/16 08:44:54;;;;;;;5.65;1.70;;;;;;;32.65;35.67;101065.61;1691346;84;21158;-71
2022/06/16 08:47:42;;;;;;;2.83;1.72;;;;;;;32.60;36.46;101068.04;1687736;84;21079;-71
2022/06/16 08:50:14;;;;;;;2.00;1.80;;;;;;;31.99;37.12;101064.19;1690534;84;21043;-71
2022/06/16 08:53:08;;;;;;;3.40;1.90;;;;;;;31.93;37.31;101062.31;1693953;83;21538;-71
2022/06/16 08:55:49;;;;;;;2.02;1.82;;;;;;;31.42;36.08;101061.19;1657236;83;21051;-71
2022/06/16 08:58:36;;;;;;;2.35;1.80;;;;;;;32.43;37.59;101065.69;1689700;84;21047;-71
2022/06/16 09:01:13;;;;;;;4.53;2.17;;;;;;;32.67;37.75;101067.05;1691471;83;21185;-70
2022/06/16 09:03:49;;;;;;;3.08;2.00;;;;;;;31.88;38.46;101067.41;1687211;84;21020;-70
2022/06/16 09:06:59;;;;;;;3.02;2.02;;;;;;;30.93;38.47;101057.45;1688456;83;21043;-70
2022/06/16 09:10:14;;;;;;;2.35;1.90;;;;;;;30.48;39.80;101063.35;1691113;84;21043;-70
2022/06/16 09:13:26;;;;;;;2.67;2.05;;;;;;;31.03;37.96;101053.16;1693166;84;21046;-69
2022/06/16 09:16:26;;;;;;;3.52;2.62;;;;;;;31.51;36.15;101056.09;1690994;84;21023;-68
2022/06/16 09:19:26;;;;;;;3.10;2.12;;;;;;;31.39;37.73;101059.75;1693761;83;22434;-69
2022/06/16 09:22:11;;;;;;;6.97;3.60;;;;;;;31.72;36.45;101058.69;1687753;83;21080;-68
2022/06/16 09:24:43;;;;;;;6.67;3.90;;;;;;;31.70;37.55;101056.73;1690472;84;21068;-70
2022/06/16 09:27:28;;;;;;;5.55;4.03;;;;;;;31.60;37.17;101054.92;1687658;83;21588;-69
2022/06/16 09:30:18;;;;;;;5.80;3.80;;;;;;;31.99;37.10;101052.73;1689447;84;21043;-69
2022/06/16 09:32:54;;;;;;;5.03;3.50;;;;;;;31.76;36.75;101064.46;1692250;84;21563;-69
2022/06/16 09:35:44;;;;;;;7.53;4.58;;;;;;;31.94;37.28;101052.80;1688454;84;21051;-69
2022/06/16 09:38:23;;;;;;;6.47;4.10;;;;;;;32.25;36.82;101050.75;1687811;84;21063;-69
2022/06/16 09:44:03;;;;;;;8.58;3.90;;;;;;;32.11;37.02;101045.86;1690955;83;21051;-68
2022/06/16 09:46:38;;;;;;;8.23;4.92;;;;;;;32.16;35.94;101043.93;1693252;84;21003;-68
2022/06/16 09:49:14;;;;;;;10.72;5.65;;;;;;;32.07;37.05;101036.10;1692366;83;21024;-69
2022/06/16 09:51:47;;;;;;;9.58;5.40;;;;;;;32.30;37.24;101045.15;1690955;84;21036;-69
2022/06/16 09:54:31;;;;;;;7.00;4.67;;;;;;;32.13;37.16;101043.30;1684824;84;21043;-69
2022/06/16 09:57:04;;;;;;;8.80;4.28;;;;;;;31.88;36.15;101042.12;1690973;84;21023;-69
2022/06/16 09:59:45;;;;;;;7.35;4.78;;;;;;;31.83;36.05;101041.87;1688217;83;21039;-69
2022/06/16 10:02:20;;;;;;;8.40;4.25;;;;;;;32.19;37.19;101042.22;1686301;84;21000;-69
2022/06/16 10:04:53;;;;;;;5.53;3.40;;;;;;;31.71;35.44;101045.57;1688550;83;21035;-69
2022/06/16 10:07:43;;;;;;;5.25;3.62;;;;;;;31.87;35.03;101037.80;1666241;83;21031;-69
2022/06/16 10:10:22;;;;;;;7.08;4.08;;;;;;;31.32;35.11;101037.05;1685211;84;21055;-69
2022/06/16 10:13:08;;;;;;;6.53;3.95;;;;;;;31.34;35.20;101038.20;1691165;83;21040;-69
2022/06/16 10:15:54;;;;;;;9.23;4.30;;;;;;;31.70;36.46;101042.09;1670245;83;28315;-70
2022/06/16 10:18:22;;;;;;;7.83;3.83;;;;;;;32.25;36.71;101036.91;1685353;84;21024;-69
2022/06/16 10:20:49;;;;;;;4.30;3.37;;;;;;;31.77;35.93;101043.98;1686788;83;21027;-69
2022/06/16 10:23:24;;;;;;;7.30;3.17;;;;;;;31.66;34.90;101040.84;1691634;83;21071;-70
2022/06/16 10:25:58;;;;;;;4.85;2.40;;;;;;;31.62;35.14;101038.25;1688713;84;21044;-69
2022/06/16 10:28:39;;;;;;;4.22;2.22;;;;;;;31.78;34.48;101039.80;1685040;83;21004;-68
2022/06/16 10:31:07;;;;;;;2.98;2.20;;;;;;;32.05;33.58;101036.80;1690070;84;21071;-69
2022/06/16 10:33:39;;;;;;;4.53;2.47;;;;;;;32.39;33.68;101028.47;1662954;85;21019;-69
2022/06/16 10:36:19;;;;;;;6.00;2.80;;;;;;;32.82;34.75;101030.06;1683554;83;21546;-68
2022/06/16 10:39:07;;;;;;;6.45;3.55;;;;;;;32.82;35.15;101026.87;1689053;83;21015;-68
2022/06/16 10:42:01;;;;;;;5.12;3.12;;;;;;;32.72;33.83;101028.59;1693299;84;21116;-69
2022/06/16 10:44:32;;;;;;;6.10;3.20;;;;;;;32.49;34.40;101032.91;1688051;84;21076;-68
2022/06/16 10:47:07;;;;;;;10.72;3.85;;;;;;;32.44;34.30;101033.19;1689970;84;21075;-68
2022/06/16 10:49:38;;;;;;;8.78;4.28;;;;;;;32.13;35.37;101034.50;1687812;84;21012;-69
2022/06/16 10:52:11;;;;;;;7.87;4.45;;;;;;;32.02;36.21;101036.41;1690893;84;21107;-68
2022/06/16 10:54:59;;;;;;;6.05;4.28;;;;;;;32.07;36.12;101029.96;1687240;84;21649;-68
2022/06/16 10:57:33;;;;;;;6.10;4.33;;;;;;;32.64;34.67;101028.78;1681273;84;21040;-68
2022/06/16 11:00:20;;;;;;;7.78;4.30;;;;;;;32.60;34.47;101024.88;1692472;83;21512;-68
2022/06/16 11:03:07;;;;;;;6.70;4.17;;;;;;;32.64;34.30;101028.78;1682760;83;21036;-72
2022/06/16 11:05:58;;;;;;;6.60;4.25;;;;;;;32.92;33.75;101023.30;1690377;84;21567;-73
2022/06/16 11:08:38;;;;;;;8.98;4.72;;;;;;;33.18;35.04;101015.58;1692085;84;21043;-72
2022/06/16 11:11:06;;;;;;;8.10;5.03;;;;;;;33.40;33.42;101037.55;1686097;84;21075;-73
2022/06/16 11:13:41;;;;;;;7.37;4.15;;;;;;;33.18;33.77;101016.92;1693296;83;21524;-73
2022/06/16 11:16:12;;;;;;;11.48;5.08;;;;;;;33.19;33.04;101016.69;1689084;84;21016;-72
2022/06/16 11:18:44;;;;;;;10.60;4.83;;;;;;;32.47;34.69;101022.16;1686635;84;21031;-72
2022/06/16 11:21:23;;;;;;;6.35;4.17;;;;;;;33.25;35.32;101008.38;1685659;84;21489;-72
2022/06/16 11:23:54;;;;;;;7.42;3.90;;;;;;;32.99;33.94;101017.16;1678124;85;21044;-73
2022/06/16 11:26:32;;;;;;;7.45;3.83;;;;;;;32.57;33.99;101023.14;1682914;84;21230;-73
2022/06/16 11:29:15;;;;;;;9.38;3.22;;;;;;;32.67;32.62;101022.25;1682311;84;21040;-73
2022/06/16 11:31:47;;;;;;;4.78;3.25;;;;;;;32.94;32.57;101024.45;1679864;85;21040;-73
2022/06/16 11:34:22;;;;;;;4.90;2.47;;;;;;;32.77;32.42;101020.50;1678609;84;21055;-73
2022/06/16 11:37:12;;;;;;;3.05;1.80;;;;;;;32.97;32.39;101020.55;1678887;85;21035;-72
2022/06/16 11:40:07;;;;;;;5.12;1.92;;;;;;;33.24;30.73;101025.44;1693840;84;21066;-73
2022/06/16 11:43:12;;;;;;;4.92;1.92;;;;;;;33.10;29.70;101020.59;1685798;84;21019;-72
2022/06/16 11:45:51;;;;;;;;;;;;;;;33.70;29.38;101017.94;1694697;83;21052;-72
2022/06/16 11:48:33;;;;;;;2.22;1.98;;;;;;;33.56;29.36;101021.11;1681533;84;20143;-73
2022/06/16 11:51:27;;;;;;;5.70;2.35;;;;;;;33.89;29.66;101013.05;1691078;83;21553;-73
2022/06/16 11:54:09;;;;;;;4.97;2.62;;;;;;;34.20;30.38;101010.72;1692325;83;21112;-72
2022/06/16 11:57:18;;;;;;;6.15;2.62;;;;;;;34.44;30.16;101017.19;1689926;83;21067;-73
2022/06/16 12:00:12;;;;;;;5.60;2.67;;;;;;;33.82;29.87;101014.09;1685211;83;21138;-73
2022/06/16 12:03:19;;;;;;;3.90;2.00;;;;;;;34.11;30.90;101009.59;1687973;84;21044;-72
2022/06/16 12:06:17;;;;;;;2.22;1.90;;;;;;;34.47;30.19;101004.23;1690170;83;21607;-73
2022/06/16 12:08:52;;;;;;;2.75;1.85;;;;;;;34.48;29.41;101005.85;1664017;83;21028;-73
2022/06/16 12:11:39;;;;;;;2.77;2.00;;;;;;;34.63;29.15;101006.92;1690279;84;21048;-72
2022/06/16 12:14:17;;;;;;;5.42;2.30;;;;;;;34.93;29.24;101006.32;1684503;83;21114;-72
2022/06/16 12:17:02;;;;;;;2.83;2.50;;;;;;;34.88;28.95;101002.97;1672032;84;21016;-72
2022/06/16 12:19:42;;;;;;;5.90;3.20;;;;;;;34.36;28.35;101009.42;1688723;84;21067;-72
2022/06/16 12:22:17;;;;;;;5.12;3.42;;;;;;;35.25;29.05;100999.09;1661607;84;21154;-72